Wetterdaten: Mittwoch, 14.01.2015
Datum Zeit Temp. A. Feuchte A. Luftdruck Regen Wind Richtung Richtung Sonnenschein ET UV Solar Taupunkt Windchill Windben Empfang
14.01.2015 00:00 -1,5 C 72 % 1014,8 hPa 0,0 l/m 2,2 km/h (1 Bft) W-SW 257 0 min 0,000 mm 0,0 UV-I 0 W/m -5,9 C -1,5 C 4,0 km/h (1 Bft) 0,00 %
14.01.2015 00:15 -2,0 C 75 % 1014,9 hPa 0,0 l/m 0,0 km/h (0 Bft) W-SW 252 0 min 0,000 mm 0,0 UV-I 0 W/m -5,8 C -2,0 C 0,0 km/h (0 Bft) 0,00 %
14.01.2015 00:30 -2,0 C 75 % 1014,8 hPa 0,0 l/m 0,0 km/h (0 Bft) S-SW 201 0 min 0,000 mm 0,0 UV-I 0 W/m -5,8 C -2,0 C 0,0 km/h (0 Bft) 0,00 %
14.01.2015 00:45 -1,4 C 70 % 1014,5 hPa 0,0 l/m 0,0 km/h (0 Bft) S-SW 208 0 min 0,000 mm 0,0 UV-I 0 W/m -6,1 C -1,4 C 0,0 km/h (0 Bft) 0,00 %
14.01.2015 01:00 -0,9 C 65 % 1014,5 hPa 0,0 l/m 0,0 km/h (0 Bft) SW 228 0 min 0,000 mm 0,0 UV-I 0 W/m -6,6 C -0,9 C 0,0 km/h (0 Bft) 0,00 %
14.01.2015 01:15 -1,4 C 71 % 1014,7 hPa 0,0 l/m 0,0 km/h (0 Bft) S 190 0 min 0,000 mm 0,0 UV-I 0 W/m -6,0 C -1,4 C 0,0 km/h (0 Bft) 0,00 %
14.01.2015 01:30 -2,3 C 69 % 1015,0 hPa 0,0 l/m 0,0 km/h (0 Bft) S-SW 197 0 min 0,000 mm 0,0 UV-I 0 W/m -7,2 C -2,3 C 0,0 km/h (0 Bft) 0,00 %
14.01.2015 01:45 -2,4 C 74 % 1015,1 hPa 0,0 l/m 0,0 km/h (0 Bft) S-SW 198 0 min 0,000 mm 0,0 UV-I 0 W/m -6,4 C -2,4 C 0,0 km/h (0 Bft) 0,00 %
14.01.2015 02:00 -2,3 C 73 % 1015,1 hPa 0,0 l/m 0,0 km/h (0 Bft) S-SW 204 0 min 0,000 mm 0,0 UV-I 0 W/m -6,5 C -2,3 C 0,0 km/h (0 Bft) 0,00 %
14.01.2015 02:15 -1,8 C 67 % 1015,1 hPa 0,0 l/m 0,0 km/h (0 Bft) S-SW 200 0 min 0,000 mm 0,0 UV-I 0 W/m -7,1 C -1,8 C 0,0 km/h (0 Bft) 0,00 %
14.01.2015 02:30 -2,1 C 71 % 1014,8 hPa 0,0 l/m 0,0 km/h (0 Bft) SW 226 0 min 0,000 mm 0,0 UV-I 0 W/m -6,6 C -2,1 C 0,0 km/h (0 Bft) 0,00 %
14.01.2015 02:45 -2,6 C 69 % 1014,8 hPa 0,0 l/m 0,0 km/h (0 Bft) S 186 0 min 0,000 mm 0,0 UV-I 0 W/m -7,5 C -2,6 C 0,0 km/h (0 Bft) 0,00 %
14.01.2015 03:00 -2,6 C 69 % 1014,9 hPa 0,0 l/m 0,0 km/h (0 Bft) W-SW 250 0 min 0,000 mm 0,0 UV-I 0 W/m -7,5 C -2,6 C 0,0 km/h (0 Bft) 0,00 %
14.01.2015 03:15 -2,9 C 70 % 1015,0 hPa 0,0 l/m 0,0 km/h (0 Bft) S-SW 211 0 min 0,000 mm 0,0 UV-I 0 W/m -7,6 C -2,9 C 0,0 km/h (0 Bft) 0,00 %
14.01.2015 03:30 -2,8 C 69 % 1014,7 hPa 0,0 l/m 0,0 km/h (0 Bft) S 184 0 min 0,000 mm 0,0 UV-I 0 W/m -7,7 C -2,8 C 0,0 km/h (0 Bft) 0,00 %
14.01.2015 03:45 -2,9 C 70 % 1015,0 hPa 0,0 l/m 0,0 km/h (0 Bft) S-SW 199 0 min 0,000 mm 0,0 UV-I 0 W/m -7,6 C -2,9 C 0,0 km/h (0 Bft) 0,00 %
14.01.2015 04:00 -2,8 C 71 % 1015,3 hPa 0,0 l/m 0,0 km/h (0 Bft) SW 218 0 min 0,000 mm 0,0 UV-I 0 W/m -7,3 C -2,8 C 0,0 km/h (0 Bft) 0,00 %
14.01.2015 04:15 -2,6 C 75 % 1015,4 hPa 0,0 l/m 0,0 km/h (0 Bft) SW 225 0 min 0,000 mm 0,0 UV-I 0 W/m -6,4 C -2,6 C 0,0 km/h (0 Bft) 0,00 %
14.01.2015 04:30 -2,3 C 75 % 1015,1 hPa 0,0 l/m 0,0 km/h (0 Bft) S-SW 197 0 min 0,000 mm 0,0 UV-I 0 W/m -6,1 C -2,3 C 0,0 km/h (0 Bft) 0,00 %
14.01.2015 04:45 -1,8 C 73 % 1015,1 hPa 0,0 l/m 0,0 km/h (0 Bft) S 182 0 min 0,000 mm 0,0 UV-I 0 W/m -6,0 C -1,8 C 0,0 km/h (0 Bft) 0,00 %
14.01.2015 05:00 -1,6 C 74 % 1014,7 hPa 0,0 l/m 0,0 km/h (0 Bft) SW 214 0 min 0,000 mm 0,0 UV-I 0 W/m -5,6 C -1,6 C 0,0 km/h (0 Bft) 0,00 %
14.01.2015 05:15 -1,7 C 74 % 1014,9 hPa 0,0 l/m 0,0 km/h (0 Bft) S-SW 194 0 min 0,000 mm 0,0 UV-I 0 W/m -5,7 C -1,7 C 0,0 km/h (0 Bft) 0,00 %
14.01.2015 05:30 -1,6 C 72 % 1014,9 hPa 0,0 l/m 0,0 km/h (0 Bft) SW 224 0 min 0,000 mm 0,0 UV-I 0 W/m -6,0 C -1,6 C 0,0 km/h (0 Bft) 0,00 %
14.01.2015 05:45 -1,7 C 75 % 1015,2 hPa 0,0 l/m 0,0 km/h (0 Bft) S-SW 196 0 min 0,000 mm 0,0 UV-I 0 W/m -5,5 C -1,7 C 0,0 km/h (0 Bft) 0,00 %
14.01.2015 06:00 -1,6 C 75 % 1015,4 hPa 0,0 l/m 0,0 km/h (0 Bft) S-SW 204 0 min 0,000 mm 0,0 UV-I 0 W/m -5,4 C -1,6 C 0,0 km/h (0 Bft) 0,00 %
14.01.2015 06:15 -1,2 C 73 % 1015,4 hPa 0,0 l/m 0,0 km/h (0 Bft) W-SW 256 0 min 0,000 mm 0,0 UV-I 0 W/m -5,4 C -1,2 C 0,0 km/h (0 Bft) 0,00 %
14.01.2015 06:30 -1,5 C 75 % 1015,3 hPa 0,0 l/m 0,0 km/h (0 Bft) S-SW 194 0 min 0,000 mm 0,0 UV-I 0 W/m -5,3 C -1,5 C 0,0 km/h (0 Bft) 0,00 %
14.01.2015 06:45 -1,5 C 74 % 1015,5 hPa 0,0 l/m 0,0 km/h (0 Bft) S-SW 200 0 min 0,000 mm 0,0 UV-I 0 W/m -5,5 C -1,5 C 0,0 km/h (0 Bft) 0,00 %
14.01.2015 07:00 -1,4 C 75 % 1015,6 hPa 0,0 l/m 0,0 km/h (0 Bft) S 174 0 min 0,000 mm 0,0 UV-I 0 W/m -5,2 C -1,4 C 0,0 km/h (0 Bft) 0,00 %
14.01.2015 07:15 -1,1 C 75 % 1015,6 hPa 0,0 l/m 0,0 km/h (0 Bft) SW 215 0 min 0,000 mm 0,0 UV-I 0 W/m -5,0 C -1,1 C 0,0 km/h (0 Bft) 0,00 %
14.01.2015 07:30 -1,1 C 76 % 1015,5 hPa 0,0 l/m 0,0 km/h (0 Bft) S-SW 209 0 min 0,000 mm 0,0 UV-I 0 W/m -4,8 C -1,1 C 0,0 km/h (0 Bft) 0,00 %
14.01.2015 07:45 -1,1 C 75 % 1015,4 hPa 0,0 l/m 0,0 km/h (0 Bft) S-SW 211 0 min 0,000 mm 0,0 UV-I 0 W/m -5,0 C -1,1 C 0,0 km/h (0 Bft) 0,00 %
14.01.2015 08:00 -1,1 C 76 % 1015,7 hPa 0,0 l/m 0,0 km/h (0 Bft) S 185 0 min 0,000 mm 0,0 UV-I 3 W/m -4,8 C -1,1 C 0,0 km/h (0 Bft) 0,00 %
14.01.2015 08:15 -1,0 C 76 % 1015,8 hPa 0,0 l/m 0,0 km/h (0 Bft) S-SW 201 0 min 0,000 mm 0,0 UV-I 10 W/m -4,7 C -1,0 C 0,0 km/h (0 Bft) 0,00 %
14.01.2015 08:30 -0,8 C 75 % 1016,0 hPa 0,0 l/m 0,0 km/h (0 Bft) S 178 0 min 0,000 mm 0,0 UV-I 17 W/m -4,7 C -0,8 C 0,0 km/h (0 Bft) 0,00 %
14.01.2015 08:45 -0,5 C 74 % 1016,1 hPa 0,0 l/m 0,0 km/h (0 Bft) W-SW 242 0 min 0,000 mm 0,0 UV-I 32 W/m -4,5 C -0,5 C 0,0 km/h (0 Bft) 0,00 %
14.01.2015 09:00 -0,3 C 73 % 1016,4 hPa 0,0 l/m 0,0 km/h (0 Bft) SW 228 0 min 0,000 mm 1,0 UV-I 47 W/m -4,5 C -0,3 C 0,0 km/h (0 Bft) 0,00 %
14.01.2015 09:15 0,0 C 73 % 1016,7 hPa 0,0 l/m 0,0 km/h (0 Bft) S 190 0 min 0,000 mm 1,0 UV-I 59 W/m -4,2 C 0,0 C 0,0 km/h (0 Bft) 0,00 %
14.01.2015 09:30 0,3 C 70 % 1016,5 hPa 0,0 l/m 0,4 km/h (0 Bft) SW 221 0 min 0,000 mm 1,0 UV-I 81 W/m -4,5 C 0,3 C 4,0 km/h (1 Bft) 0,00 %
14.01.2015 09:45 1,1 C 67 % 1016,3 hPa 0,0 l/m 0,0 km/h (0 Bft) SW 214 0 min 0,000 mm 1,0 UV-I 95 W/m -4,3 C 1,1 C 0,0 km/h (0 Bft) 0,00 %
14.01.2015 10:00 1,9 C 65 % 1016,2 hPa 0,0 l/m 0,0 km/h (0 Bft) S 175 0 min 0,000 mm 1,0 UV-I 92 W/m -4,0 C 1,9 C 0,0 km/h (0 Bft) 0,00 %
14.01.2015 10:15 2,0 C 68 % 1016,7 hPa 0,0 l/m 0,0 km/h (0 Bft) W-SW 252 0 min 0,000 mm 1,0 UV-I 85 W/m -3,3 C 2,0 C 0,0 km/h (0 Bft) 0,00 %
14.01.2015 10:30 1,8 C 67 % 1016,5 hPa 0,0 l/m 0,0 km/h (0 Bft) S-SW 198 0 min 0,000 mm 1,0 UV-I 105 W/m -3,7 C 1,8 C 0,0 km/h (0 Bft) 0,00 %
14.01.2015 10:45 2,6 C 70 % 1016,2 hPa 0,0 l/m 0,0 km/h (0 Bft) S-SW 210 0 min 0,000 mm 1,0 UV-I 101 W/m -2,3 C 2,6 C 0,0 km/h (0 Bft) 0,00 %
14.01.2015 11:00 3,8 C 64 % 1015,4 hPa 0,0 l/m 0,0 km/h (0 Bft) S-SW 209 0 min 0,000 mm 1,0 UV-I 95 W/m -2,4 C 3,8 C 0,0 km/h (0 Bft) 0,00 %
14.01.2015 11:15 5,7 C 60 % 1015,1 hPa 0,0 l/m 0,0 km/h (0 Bft) SW 219 0 min 0,000 mm 1,0 UV-I 111 W/m -1,4 C 5,7 C 0,0 km/h (0 Bft) 0,00 %
14.01.2015 11:30 7,2 C 56 % 1014,3 hPa 0,0 l/m 1,8 km/h (1 Bft) S 191 0 min 0,000 mm 1,0 UV-I 114 W/m -1,0 C 7,2 C 4,0 km/h (1 Bft) 0,00 %
14.01.2015 11:45 8,4 C 52 % 1013,8 hPa 0,0 l/m 5,8 km/h (2 Bft) N-NW 340 0 min 0,000 mm 2,0 UV-I 143 W/m -0,9 C 8,4 C 11,9 km/h (2 Bft) 0,00 %
14.01.2015 12:00 8,8 C 51 % 1013,6 hPa 0,0 l/m 1,8 km/h (1 Bft) W-SW 255 15 min 0,000 mm 2,0 UV-I 199 W/m -0,8 C 8,8 C 4,0 km/h (1 Bft) 0,00 %
14.01.2015 12:15 8,8 C 51 % 1013,1 hPa 0,0 l/m 0,4 km/h (0 Bft) SW 228 15 min 0,000 mm 2,0 UV-I 205 W/m -0,8 C 8,8 C 4,0 km/h (1 Bft) 0,00 %
14.01.2015 12:30 8,9 C 52 % 1012,9 hPa 0,0 l/m 4,7 km/h (1 Bft) NW 304 15 min 0,000 mm 1,0 UV-I 210 W/m -0,4 C 8,9 C 7,9 km/h (2 Bft) 0,00 %
14.01.2015 12:45 8,9 C 53 % 1012,8 hPa 0,0 l/m 0,4 km/h (0 Bft) W-NW 300 15 min 0,000 mm 2,0 UV-I 215 W/m -0,1 C 8,9 C 4,0 km/h (1 Bft) 0,00 %
14.01.2015 13:00 9,0 C 54 % 1012,7 hPa 0,0 l/m 0,4 km/h (0 Bft) S 187 15 min 0,000 mm 2,0 UV-I 222 W/m 0,2 C 9,0 C 4,0 km/h (1 Bft) 0,00 %
14.01.2015 13:15 8,9 C 55 % 1013,2 hPa 0,0 l/m 2,2 km/h (1 Bft) SW 222 0 min 0,000 mm 1,0 UV-I 112 W/m 0,4 C 8,9 C 4,0 km/h (1 Bft) 0,00 %
14.01.2015 13:30 8,4 C 59 % 1013,5 hPa 0,0 l/m 14,0 km/h (3 Bft) SW 229 0 min 0,000 mm 1,0 UV-I 44 W/m 0,9 C 3,7 C 15,8 km/h (3 Bft) 0,00 %
14.01.2015 13:45 6,7 C 71 % 1014,8 hPa 0,3 l/m 2,9 km/h (1 Bft) NW 309 0 min 0,000 mm 0,0 UV-I 27 W/m 1,8 C 6,7 C 4,0 km/h (1 Bft) 0,00 %
14.01.2015 14:00 4,6 C 75 % 1015,7 hPa 0,3 l/m 0,7 km/h (0 Bft) SW 224 0 min 0,000 mm 0,0 UV-I 9 W/m 0,6 C 4,6 C 4,0 km/h (1 Bft) 0,00 %
14.01.2015 14:15 4,4 C 77 % 1015,9 hPa 0,3 l/m 19,4 km/h (3 Bft) W-SW 257 0 min 0,000 mm 0,0 UV-I 22 W/m 0,7 C -3,7 C 28,1 km/h (4 Bft) 0,00 %
14.01.2015 14:30 4,5 C 75 % 1016,5 hPa 0,3 l/m 0,7 km/h (0 Bft) S-SW 204 0 min 0,000 mm 0,0 UV-I 19 W/m 0,5 C 4,5 C 4,0 km/h (1 Bft) 0,00 %
14.01.2015 14:45 4,4 C 75 % 1016,9 hPa 0,0 l/m 9,4 km/h (2 Bft) S 182 0 min 0,000 mm 0,0 UV-I 22 W/m 0,4 C 1,9 C 15,8 km/h (3 Bft) 0,00 %
14.01.2015 15:00 3,9 C 77 % 1017,4 hPa 0,9 l/m 2,2 km/h (1 Bft) SO 141 0 min 0,000 mm 0,0 UV-I 7 W/m 0,2 C 3,9 C 4,0 km/h (1 Bft) 0,00 %
14.01.2015 15:15 3,4 C 80 % 1017,5 hPa 0,6 l/m 1,8 km/h (1 Bft) N 353 0 min 0,000 mm 0,0 UV-I 4 W/m 0,3 C 3,4 C 4,0 km/h (1 Bft) 0,00 %
14.01.2015 15:30 3,2 C 82 % 1017,8 hPa 0,3 l/m 0,4 km/h (0 Bft) N 351 0 min 0,000 mm 0,0 UV-I 3 W/m 0,4 C 3,2 C 4,0 km/h (1 Bft) 0,00 %
14.01.2015 15:45 3,0 C 82 % 1018,0 hPa 0,3 l/m 0,4 km/h (0 Bft) NO 39 0 min 0,000 mm 0,0 UV-I 0 W/m 0,2 C 3,0 C 4,0 km/h (1 Bft) 0,00 %
14.01.2015 16:00 2,9 C 82 % 1017,9 hPa 0,0 l/m 0,4 km/h (0 Bft) W 277 0 min 0,000 mm 0,0 UV-I 0 W/m 0,1 C 2,9 C 4,0 km/h (1 Bft) 0,00 %
14.01.2015 16:15 2,9 C 82 % 1017,8 hPa 0,3 l/m 2,9 km/h (1 Bft) W-NW 289 0 min 0,000 mm 0,0 UV-I 0 W/m 0,1 C 2,9 C 7,9 km/h (2 Bft) 0,00 %
14.01.2015 16:30 3,1 C 80 % 1017,6 hPa 0,0 l/m 0,4 km/h (0 Bft) S-SW 209 0 min 0,000 mm 0,0 UV-I 0 W/m -0,0 C 3,1 C 4,0 km/h (1 Bft) 0,00 %
14.01.2015 16:45 3,1 C 79 % 1017,4 hPa 0,0 l/m 0,4 km/h (0 Bft) S 180 0 min 0,000 mm 0,0 UV-I 0 W/m -0,2 C 3,1 C 4,0 km/h (1 Bft) 0,00 %
14.01.2015 17:00 3,0 C 79 % 1017,5 hPa 0,0 l/m 0,7 km/h (0 Bft) W-SW 250 0 min 0,000 mm 0,0 UV-I 0 W/m -0,3 C 3,0 C 4,0 km/h (1 Bft) 0,00 %
14.01.2015 17:15 3,0 C 79 % 1017,2 hPa 0,0 l/m 0,0 km/h (0 Bft) W-SW 251 0 min 0,000 mm 0,0 UV-I 0 W/m -0,3 C 3,0 C 0,0 km/h (0 Bft) 0,00 %
14.01.2015 17:30 2,9 C 79 % 1016,7 hPa 0,0 l/m 0,0 km/h (0 Bft) W-SW 255 0 min 0,000 mm 0,0 UV-I 0 W/m -0,4 C 2,9 C 0,0 km/h (0 Bft) 0,00 %
14.01.2015 17:45 3,0 C 77 % 1016,5 hPa 0,0 l/m 0,0 km/h (0 Bft) O-SO 102 0 min 0,000 mm 0,0 UV-I 0 W/m -0,6 C 3,0 C 0,0 km/h (0 Bft) 0,00 %
14.01.2015 18:00 3,2 C 76 % 1016,5 hPa 0,0 l/m 0,0 km/h (0 Bft) S-SW 207 0 min 0,000 mm 0,0 UV-I 0 W/m -0,6 C 3,2 C 0,0 km/h (0 Bft) 0,00 %
14.01.2015 18:15 3,3 C 74 % 1016,4 hPa 0,0 l/m 0,0 km/h (0 Bft) S 188 0 min 0,000 mm 0,0 UV-I 0 W/m -0,9 C 3,3 C 0,0 km/h (0 Bft) 0,00 %
14.01.2015 18:30 3,7 C 73 % 1016,2 hPa 0,0 l/m 0,4 km/h (0 Bft) NW 325 0 min 0,000 mm 0,0 UV-I 0 W/m -0,7 C 3,7 C 4,0 km/h (1 Bft) 0,00 %
14.01.2015 18:45 3,6 C 73 % 1015,9 hPa 0,0 l/m 0,0 km/h (0 Bft) NW 316 0 min 0,000 mm 0,0 UV-I 0 W/m -0,8 C 3,6 C 0,0 km/h (0 Bft) 0,00 %
14.01.2015 19:00 3,5 C 75 % 1016,4 hPa 0,0 l/m 0,0 km/h (0 Bft) S 175 0 min 0,000 mm 0,0 UV-I 0 W/m -0,5 C 3,5 C 0,0 km/h (0 Bft) 0,00 %
14.01.2015 19:15 3,3 C 75 % 1016,2 hPa 0,0 l/m 0,0 km/h (0 Bft) W-SW 253 0 min 0,000 mm 0,0 UV-I 0 W/m -0,7 C 3,3 C 0,0 km/h (0 Bft) 0,00 %
14.01.2015 19:30 4,8 C 70 % 1016,1 hPa 0,0 l/m 5,8 km/h (2 Bft) W-SW 256 0 min 0,000 mm 0,0 UV-I 0 W/m -0,2 C 4,8 C 7,9 km/h (2 Bft) 0,00 %
14.01.2015 19:45 4,3 C 75 % 1016,3 hPa 0,6 l/m 4,0 km/h (1 Bft) NO 36 0 min 0,000 mm 0,0 UV-I 0 W/m 0,3 C 4,3 C 7,9 km/h (2 Bft) 0,00 %
14.01.2015 20:00 4,0 C 76 % 1016,8 hPa 0,0 l/m 2,2 km/h (1 Bft) S-SW 212 0 min 0,000 mm 0,0 UV-I 0 W/m 0,2 C 4,0 C 4,0 km/h (1 Bft) 0,00 %
14.01.2015 20:15 4,1 C 74 % 1017,3 hPa 0,0 l/m 11,5 km/h (2 Bft) SW 236 0 min 0,000 mm 0,0 UV-I 0 W/m -0,1 C 0,0 C 32,0 km/h (5 Bft) 0,00 %
14.01.2015 20:30 3,8 C 71 % 1017,4 hPa 0,0 l/m 0,4 km/h (0 Bft) S 174 0 min 0,000 mm 0,0 UV-I 0 W/m -1,0 C 3,8 C 4,0 km/h (1 Bft) 0,00 %
14.01.2015 20:45 3,4 C 73 % 1017,7 hPa 0,0 l/m 6,5 km/h (2 Bft) SW 229 0 min 0,000 mm 0,0 UV-I 0 W/m -1,0 C 3,3 C 7,9 km/h (2 Bft) 0,00 %
14.01.2015 21:00 3,0 C 74 % 1018,3 hPa 0,0 l/m 0,7 km/h (0 Bft) W-SW 255 0 min 0,000 mm 0,0 UV-I 0 W/m -1,2 C 3,0 C 4,0 km/h (1 Bft) 0,00 %
14.01.2015 21:15 2,9 C 73 % 1018,8 hPa 0,0 l/m 0,4 km/h (0 Bft) NW 310 0 min 0,000 mm 0,0 UV-I 0 W/m -1,5 C 2,9 C 4,0 km/h (1 Bft) 0,00 %
14.01.2015 21:30 2,4 C 71 % 1019,0 hPa 0,0 l/m 5,4 km/h (1 Bft) W-SW 251 0 min 0,000 mm 0,0 UV-I 0 W/m -2,3 C 2,4 C 7,9 km/h (2 Bft) 0,00 %
14.01.2015 21:45 2,4 C 70 % 1019,3 hPa 0,0 l/m 1,4 km/h (1 Bft) SW 221 0 min 0,000 mm 0,0 UV-I 0 W/m -2,5 C 2,4 C 4,0 km/h (1 Bft) 0,00 %
14.01.2015 22:00 2,5 C 73 % 1019,7 hPa 0,0 l/m 3,2 km/h (1 Bft) W-NW 298 0 min 0,000 mm 0,0 UV-I 0 W/m -1,8 C 2,5 C 11,9 km/h (2 Bft) 0,00 %
14.01.2015 22:15 2,9 C 72 % 1020,3 hPa 0,0 l/m 1,4 km/h (1 Bft) S-SW 192 0 min 0,000 mm 0,0 UV-I 0 W/m -1,6 C 2,9 C 4,0 km/h (1 Bft) 0,00 %
14.01.2015 22:30 3,1 C 68 % 1020,3 hPa 0,0 l/m 6,5 km/h (2 Bft) W-SW 251 0 min 0,000 mm 0,0 UV-I 0 W/m -2,2 C 3,0 C 7,9 km/h (2 Bft) 0,00 %
14.01.2015 22:45 3,6 C 64 % 1020,3 hPa 0,0 l/m 4,0 km/h (1 Bft) W-NW 300 0 min 0,000 mm 0,0 UV-I 0 W/m -2,6 C 3,6 C 7,9 km/h (2 Bft) 0,00 %
14.01.2015 23:00 3,6 C 65 % 1020,5 hPa 0,0 l/m 9,4 km/h (2 Bft) SW 230 0 min 0,000 mm 0,0 UV-I 0 W/m -2,4 C 1,0 C 11,9 km/h (2 Bft) 0,00 %
14.01.2015 23:15 3,4 C 65 % 1020,7 hPa 0,0 l/m 1,8 km/h (1 Bft) W-NW 283 0 min 0,000 mm 0,0 UV-I 0 W/m -2,5 C 3,4 C 4,0 km/h (1 Bft) 0,00 %
14.01.2015 23:30 3,2 C 66 % 1020,7 hPa 0,0 l/m 1,8 km/h (1 Bft) W-SW 256 0 min 0,000 mm 0,0 UV-I 0 W/m -2,5 C 3,2 C 4,0 km/h (1 Bft) 0,00 %
14.01.2015 23:45 3,2 C 66 % 1021,1 hPa 0,0 l/m 2,9 km/h (1 Bft) W-SW 251 0 min 0,000 mm 0,0 UV-I 0 W/m -2,5 C 3,2 C 7,9 km/h (2 Bft) 0,00 %
_ Min-Zeit 03:15 12:00 13:00 - 00:15 - - - - - - 03:30 14:15 00:15 00:00
Minimum _ -2,9 C 51 % 1012,7 hPa - 0,0 km/h (0 Bft) - - - - - - -7,7 C -3,7 C 0,0 km/h (0 Bft) 0,00 %
_ Max-Zeit 13:00 15:30 23:45 15:00 14:15 - - 12:00 00:00 11:45 13:00 13:45 13:00 20:15 00:00
Maximum _ 9,0 C 82 % 1021,1 hPa 0,9 l/m 19,4 km/h
W-SW (3 Bft)
- - 15 min 0,000 mm 2,0 UV-I 222 W/m 1,8 C 9,0 C 32,0 km/h
SW (5 Bft)
0,00 %
Durchschnitt _ 1,9 C 71 % 1016,2 hPa #4,2 l/m 1,5 km/h (1 Bft) W-SW - #1:15 h #0,000 mm 1,3 UV-I 81 W/m -2,9 C 1,6 C 3,2 km/h (1 Bft) 0,00 %